Time;durP1;ratioP1;P1;durP2;ratioP2;P2;SDS_P1;SDS_P2;PMS_P1;PMS_P2;Temp;Humidity;BMP_temperature;BMP_pressure;BME280_temperature;BME280_humidity;BME280_pressure;Samples;Min_cycle;Max_cycle;Signal;HPM_P1;HPM_P2
2021/03/27 00:00:58;;;;;;;1.63;1.40;;;;;;;;;;5069115;28;20034;-60
2021/03/27 00:03:56;;;;;;;2.22;1.50;;;;;;;;;;5055785;28;20497;-62
2021/03/27 00:06:33;;;;;;;2.28;1.27;;;;;;;;;;5057456;28;20051;-62
2021/03/27 00:09:19;;;;;;;2.00;1.50;;;;;;;;;;5070391;28;20032;-61
2021/03/27 00:11:49;;;;;;;2.90;1.38;;;;;;;;;;5069782;28;20487;-61
2021/03/27 00:14:22;;;;;;;3.03;1.50;;;;;;;;;;5066634;28;20113;-62
2021/03/27 00:16:47;;;;;;;2.67;1.77;;;;;;;;;;5059729;28;20471;-62
2021/03/27 00:19:22;;;;;;;2.50;1.80;;;;;;;;;;5071033;28;20041;-62
2021/03/27 00:21:51;;;;;;;2.92;1.67;;;;;;;;;;5053490;28;20112;-62
2021/03/27 00:24:20;;;;;;;2.45;1.73;;;;;;;;;;5052813;28;20584;-61
2021/03/27 00:27:03;;;;;;;2.03;1.52;;;;;;;;;;5054147;28;20029;-62
2021/03/27 00:29:31;;;;;;;2.65;1.77;;;;;;;;;;5072497;28;20079;-61
2021/03/27 00:32:06;;;;;;;2.55;1.88;;;;;;;;;;5053224;28;20082;-61
2021/03/27 00:34:34;;;;;;;3.40;2.00;;;;;;;;;;5055073;28;20083;-62
2021/03/27 00:37:02;;;;;;;2.85;1.70;;;;;;;;;;5070425;28;20044;-62
2021/03/27 00:39:38;;;;;;;2.63;1.90;;;;;;;;;;5035901;28;20769;-61
2021/03/27 00:42:09;;;;;;;2.47;1.70;;;;;;;;;;5073261;28;20082;-62
2021/03/27 00:44:46;;;;;;;2.58;1.85;;;;;;;;;;5056958;28;20191;-62
2021/03/27 00:47:14;;;;;;;2.63;1.80;;;;;;;;;;5045034;28;21150;-62
2021/03/27 00:49:45;;;;;;;3.03;2.08;;;;;;;;;;5049093;28;20064;-62
2021/03/27 00:52:12;;;;;;;2.65;1.85;;;;;;;;;;5042889;28;20068;-61
2021/03/27 00:54:42;;;;;;;3.00;2.00;;;;;;;;;;5054634;28;20029;-61
2021/03/27 00:57:22;;;;;;;2.10;1.70;;;;;;;;;;5054133;28;20091;-62
2021/03/27 01:00:06;;;;;;;2.35;1.67;;;;;;;;;;5033419;28;20128;-61
2021/03/27 01:02:59;;;;;;;3.53;1.98;;;;;;;;;;5050203;28;20068;-62
2021/03/27 01:05:56;;;;;;;3.33;2.20;;;;;;;;;;5045642;28;20589;-61
2021/03/27 01:08:40;;;;;;;3.30;1.92;;;;;;;;;;5072346;28;20041;-62
2021/03/27 01:11:32;;;;;;;3.90;1.98;;;;;;;;;;5056889;28;20068;-62
2021/03/27 01:14:00;;;;;;;3.53;2.00;;;;;;;;;;5052859;28;20061;-62
2021/03/27 01:16:31;;;;;;;3.05;1.77;;;;;;;;;;5051749;28;20021;-62
2021/03/27 01:19:04;;;;;;;2.53;1.80;;;;;;;;;;5054581;28;20127;-61
2021/03/27 01:21:34;;;;;;;3.00;1.70;;;;;;;;;;5052769;28;20050;-62
2021/03/27 01:24:02;;;;;;;2.22;1.60;;;;;;;;;;5068923;28;20094;-61
2021/03/27 01:26:40;;;;;;;3.30;1.70;;;;;;;;;;5053689;28;20106;-61
2021/03/27 01:29:06;;;;;;;2.97;2.00;;;;;;;;;;5039057;28;20108;-61
2021/03/27 01:31:38;;;;;;;2.80;1.63;;;;;;;;;;5070653;28;20033;-61
2021/03/27 01:34:07;;;;;;;2.22;1.50;;;;;;;;;;5068556;28;20864;-62
2021/03/27 01:36:42;;;;;;;2.58;1.60;;;;;;;;;;5068485;28;20041;-62
2021/03/27 01:39:18;;;;;;;2.80;1.65;;;;;;;;;;5065535;28;20032;-61
2021/03/27 01:42:18;;;;;;;2.00;1.15;;;;;;;;;;5053093;28;20039;-61
2021/03/27 01:45:00;;;;;;;2.17;1.45;;;;;;;;;;5071771;28;20052;-61
2021/03/27 01:47:48;;;;;;;1.85;1.35;;;;;;;;;;5068953;28;20033;-62
2021/03/27 01:50:16;;;;;;;3.65;1.77;;;;;;;;;;5070758;28;20048;-62
2021/03/27 01:53:15;;;;;;;3.08;1.80;;;;;;;;;;5073373;28;20037;-62
2021/03/27 01:55:49;;;;;;;2.45;1.70;;;;;;;;;;5069656;28;20102;-61
2021/03/27 01:58:34;;;;;;;3.17;2.20;;;;;;;;;;5068733;28;20112;-61
2021/03/27 02:01:21;;;;;;;3.00;2.30;;;;;;;;;;5069506;28;20043;-61
2021/03/27 02:03:52;;;;;;;2.72;2.35;;;;;;;;;;5071124;28;20049;-62
2021/03/27 02:06:18;;;;;;;2.42;2.05;;;;;;;;;;5068468;28;20124;-61
2021/03/27 02:08:49;;;;;;;2.35;1.90;;;;;;;;;;5068040;28;20492;-61
2021/03/27 02:11:43;;;;;;;2.45;2.05;;;;;;;;;;5067670;28;20518;-61
2021/03/27 02:14:38;;;;;;;1.95;1.75;;;;;;;;;;5061533;28;20049;-61
2021/03/27 02:17:17;;;;;;;2.20;1.50;;;;;;;;;;5052104;28;20045;-61
2021/03/27 02:19:53;;;;;;;1.52;1.25;;;;;;;;;;5068255;28;20530;-61
2021/03/27 02:22:37;;;;;;;1.90;1.17;;;;;;;;;;5067759;28;20167;-61
2021/03/27 02:25:24;;;;;;;1.10;0.93;;;;;;;;;;5065439;28;20044;-62
2021/03/27 02:27:53;;;;;;;1.40;1.00;;;;;;;;;;5067238;28;20037;-61
2021/03/27 02:30:32;;;;;;;0.70;0.70;;;;;;;;;;5066575;28;20322;-61
2021/03/27 02:33:15;;;;;;;0.93;0.60;;;;;;;;;;5053248;28;20588;-62
2021/03/27 02:35:55;;;;;;;0.90;0.80;;;;;;;;;;5050695;28;20088;-60
2021/03/27 02:38:38;;;;;;;0.57;0.57;;;;;;;;;;5066416;28;20037;-61
2021/03/27 02:41:26;;;;;;;0.82;0.60;;;;;;;;;;5068386;28;20044;-61
2021/03/27 02:43:57;;;;;;;0.73;0.70;;;;;;;;;;5070212;28;20633;-61
2021/03/27 02:46:47;;;;;;;0.70;0.65;;;;;;;;;;5067643;28;20048;-62
2021/03/27 02:49:29;;;;;;;0.50;0.50;;;;;;;;;;5041540;28;20056;-62
2021/03/27 02:52:21;;;;;;;0.60;0.50;;;;;;;;;;5070475;28;20758;-61
2021/03/27 02:55:09;;;;;;;0.50;0.50;;;;;;;;;;5068936;28;20116;-61
2021/03/27 02:57:44;;;;;;;0.70;0.70;;;;;;;;;;5059946;28;20146;-61
2021/03/27 03:00:14;;;;;;;1.10;0.98;;;;;;;;;;5068517;28;20029;-61
2021/03/27 03:02:58;;;;;;;1.30;1.20;;;;;;;;;;5064503;28;20047;-61
2021/03/27 03:05:33;;;;;;;1.70;1.30;;;;;;;;;;5050252;28;20507;-61
2021/03/27 03:08:33;;;;;;;2.33;1.60;;;;;;;;;;5070005;28;20035;-61
2021/03/27 03:11:24;;;;;;;1.80;1.70;;;;;;;;;;5068209;28;20513;-61
2021/03/27 03:14:10;;;;;;;1.75;1.60;;;;;;;;;;5067775;28;20033;-62
2021/03/27 03:16:41;;;;;;;2.00;1.80;;;;;;;;;;5053065;28;20033;-62
2021/03/27 03:19:10;;;;;;;2.10;1.90;;;;;;;;;;5052165;28;20032;-61
2021/03/27 03:21:40;;;;;;;1.95;1.75;;;;;;;;;;5048466;28;20064;-61
2021/03/27 03:24:15;;;;;;;1.83;1.73;;;;;;;;;;5066655;28;20044;-61
2021/03/27 03:27:00;;;;;;;2.20;2.00;;;;;;;;;;5051387;28;20033;-61
2021/03/27 03:29:44;;;;;;;2.53;2.33;;;;;;;;;;5066535;28;20275;-65
2021/03/27 03:32:29;;;;;;;2.35;2.15;;;;;;;;;;5067420;28;20041;-61
2021/03/27 03:35:19;;;;;;;2.30;2.10;;;;;;;;;;5068821;28;20094;-62
2021/03/27 03:37:56;;;;;;;2.10;1.90;;;;;;;;;;5054669;28;20040;-61
2021/03/27 03:40:45;;;;;;;1.80;1.70;;;;;;;;;;5069429;28;20769;-61
2021/03/27 03:43:19;;;;;;;2.42;1.95;;;;;;;;;;5067123;28;20514;-61
2021/03/27 03:46:05;;;;;;;2.15;1.95;;;;;;;;;;5069575;28;20032;-63
2021/03/27 03:48:44;;;;;;;2.00;1.52;;;;;;;;;;5070025;28;20047;-61
2021/03/27 03:51:23;;;;;;;1.85;1.70;;;;;;;;;;5054594;28;20047;-61
2021/03/27 03:53:57;;;;;;;1.92;1.70;;;;;;;;;;5066875;28;20029;-61
2021/03/27 03:56:54;;;;;;;1.80;1.70;;;;;;;;;;5069089;28;20179;-62
2021/03/27 03:59:37;;;;;;;2.00;1.80;;;;;;;;;;5034801;28;20272;-61
2021/03/27 04:02:08;;;;;;;2.00;1.80;;;;;;;;;;5053718;28;21488;-61
2021/03/27 04:04:45;;;;;;;2.00;1.90;;;;;;;;;;5069797;28;20080;-61
2021/03/27 04:07:17;;;;;;;2.25;1.80;;;;;;;;;;5038780;28;20040;-61
2021/03/27 04:09:51;;;;;;;1.70;1.60;;;;;;;;;;5049881;28;20040;-61
2021/03/27 04:12:19;;;;;;;1.63;1.38;;;;;;;;;;5066260;28;20783;-61
2021/03/27 04:14:49;;;;;;;1.70;1.42;;;;;;;;;;5067723;28;20033;-61
2021/03/27 04:17:20;;;;;;;1.45;1.20;;;;;;;;;;5064448;28;20025;-61
2021/03/27 04:19:52;;;;;;;1.73;1.30;;;;;;;;;;5066090;28;20037;-61
2021/03/27 04:22:23;;;;;;;1.10;1.00;;;;;;;;;;5048923;28;20037;-61
2021/03/27 04:25:07;;;;;;;1.10;0.80;;;;;;;;;;5052369;28;20148;-61
2021/03/27 04:27:37;;;;;;;1.00;0.80;;;;;;;;;;5068118;28;20164;-61
2021/03/27 04:30:07;;;;;;;0.77;0.70;;;;;;;;;;5066146;28;20041;-61
2021/03/27 04:32:55;;;;;;;0.75;0.65;;;;;;;;;;5066672;28;20094;-61
2021/03/27 04:35:56;;;;;;;0.57;0.57;;;;;;;;;;5065771;28;20087;-61
2021/03/27 04:38:33;;;;;;;0.95;0.80;;;;;;;;;;5055452;28;20483;-60
2021/03/27 04:41:36;;;;;;;0.60;0.60;;;;;;;;;;5071702;28;20032;-61
2021/03/27 04:44:16;;;;;;;0.93;0.88;;;;;;;;;;5073092;28;20092;-61
2021/03/27 04:46:48;;;;;;;1.20;0.70;;;;;;;;;;5027441;28;20131;-61
2021/03/27 04:49:37;;;;;;;0.70;0.70;;;;;;;;;;5054432;28;20040;-61
2021/03/27 04:52:07;;;;;;;0.88;0.73;;;;;;;;;;5069941;28;20115;-62
2021/03/27 04:54:47;;;;;;;1.20;0.80;;;;;;;;;;5068353;28;20039;-61
2021/03/27 04:57:23;;;;;;;1.38;0.85;;;;;;;;;;5072996;28;20538;-61
2021/03/27 05:00:16;;;;;;;1.30;0.90;;;;;;;;;;5069305;28;20037;-61
2021/03/27 05:03:03;;;;;;;2.17;1.02;;;;;;;;;;5070068;28;20056;-61
2021/03/27 05:05:45;;;;;;;1.42;0.95;;;;;;;;;;5069504;28;20053;-61
2021/03/27 05:08:35;;;;;;;1.35;0.88;;;;;;;;;;5068329;28;20083;-61
2021/03/27 05:11:10;;;;;;;1.23;0.88;;;;;;;;;;5068368;28;20032;-61
2021/03/27 05:13:43;;;;;;;2.10;1.10;;;;;;;;;;5069787;28;20065;-61
2021/03/27 05:16:17;;;;;;;1.58;1.10;;;;;;;;;;5068005;28;20053;-61
2021/03/27 05:19:09;;;;;;;2.28;1.20;;;;;;;;;;5066592;28;20036;-62
2021/03/27 05:21:35;;;;;;;1.80;1.40;;;;;;;;;;5057364;28;20549;-61
2021/03/27 05:24:37;;;;;;;1.90;1.10;;;;;;;;;;5067755;28;20075;-61
2021/03/27 05:27:13;;;;;;;2.00;1.30;;;;;;;;;;5069059;28;20124;-61
2021/03/27 05:29:59;;;;;;;3.08;1.20;;;;;;;;;;5071621;28;20703;-61
2021/03/27 05:32:35;;;;;;;2.83;1.30;;;;;;;;;;5065888;28;20033;-61
2021/03/27 05:35:13;;;;;;;1.95;1.30;;;;;;;;;;5068959;28;20033;-61
2021/03/27 05:38:06;;;;;;;3.15;1.23;;;;;;;;;;5066235;28;20094;-61
2021/03/27 05:41:04;;;;;;;2.58;1.50;;;;;;;;;;5056252;28;20045;-61
2021/03/27 05:43:54;;;;;;;1.52;1.20;;;;;;;;;;5067654;28;20537;-62
2021/03/27 05:46:52;;;;;;;1.98;1.20;;;;;;;;;;5068459;28;20044;-61
2021/03/27 05:49:30;;;;;;;1.63;0.93;;;;;;;;;;5055736;28;20049;-61
2021/03/27 05:52:12;;;;;;;2.53;1.25;;;;;;;;;;5065209;28;20068;-61
2021/03/27 05:54:44;;;;;;;2.45;1.25;;;;;;;;;;5069490;28;20068;-61
2021/03/27 05:57:18;;;;;;;2.03;1.08;;;;;;;;;;5067968;28;20041;-61
2021/03/27 06:00:17;;;;;;;1.98;1.27;;;;;;;;;;5069212;28;20033;-61
2021/03/27 06:02:45;;;;;;;2.30;1.15;;;;;;;;;;5068221;28;20124;-61
2021/03/27 06:05:16;;;;;;;2.00;1.23;;;;;;;;;;5068353;28;20100;-61
2021/03/27 06:07:49;;;;;;;1.45;0.90;;;;;;;;;;5070264;28;20203;-61
2021/03/27 06:10:17;;;;;;;1.50;1.00;;;;;;;;;;5052448;28;20042;-62
2021/03/27 06:13:04;;;;;;;2.05;0.85;;;;;;;;;;5071462;28;20037;-61
2021/03/27 06:16:07;;;;;;;2.03;0.88;;;;;;;;;;5068696;28;20044;-61
2021/03/27 06:18:32;;;;;;;2.70;1.15;;;;;;;;;;5071145;28;21545;-62
2021/03/27 06:21:21;;;;;;;1.33;0.90;;;;;;;;;;5069944;28;20029;-61
2021/03/27 06:24:05;;;;;;;3.08;1.17;;;;;;;;;;5068162;28;20028;-61
2021/03/27 06:27:12;;;;;;;2.00;0.90;;;;;;;;;;5042383;28;20041;-61
2021/03/27 06:30:15;;;;;;;1.63;1.08;;;;;;;;;;4988453;28;20039;-61
2021/03/27 06:33:02;;;;;;;2.13;0.98;;;;;;;;;;5070807;28;20032;-61
2021/03/27 06:36:06;;;;;;;1.85;1.05;;;;;;;;;;5068361;28;20064;-61
2021/03/27 06:39:03;;;;;;;1.48;0.82;;;;;;;;;;5067003;28;20370;-62
2021/03/27 06:41:48;;;;;;;1.05;0.77;;;;;;;;;;5069162;28;20080;-62
2021/03/27 06:44:50;;;;;;;2.25;1.00;;;;;;;;;;5066704;28;20418;-62
2021/03/27 06:47:31;;;;;;;1.67;1.05;;;;;;;;;;5067656;28;20124;-62
2021/03/27 06:50:30;;;;;;;2.55;1.10;;;;;;;;;;5066133;28;20124;-62
2021/03/27 06:53:20;;;;;;;2.35;1.20;;;;;;;;;;5069023;28;20091;-62
2021/03/27 06:55:50;;;;;;;2.00;0.90;;;;;;;;;;5065790;28;20025;-62
2021/03/27 06:58:47;;;;;;;2.33;1.20;;;;;;;;;;5066597;28;20039;-62
2021/03/27 07:01:46;;;;;;;2.97;1.10;;;;;;;;;;5068774;28;20116;-62
2021/03/27 07:04:27;;;;;;;2.00;1.15;;;;;;;;;;5066620;28;20068;-62
2021/03/27 07:07:08;;;;;;;2.97;1.20;;;;;;;;;;5070410;28;20048;-62
2021/03/27 07:09:58;;;;;;;2.40;1.27;;;;;;;;;;5068570;28;20877;-63
2021/03/27 07:12:52;;;;;;;3.55;1.65;;;;;;;;;;5069079;28;20123;-62
2021/03/27 07:15:42;;;;;;;7.47;3.42;;;;;;;;;;5065627;28;20957;-62
2021/03/27 07:18:29;;;;;;;3.05;1.52;;;;;;;;;;5068889;28;20048;-62
2021/03/27 07:21:18;;;;;;;3.15;1.40;;;;;;;;;;5067462;28;20095;-60
2021/03/27 07:24:34;;;;;;;2.72;1.50;;;;;;;;;;5053292;28;20037;-61
2021/03/27 07:27:26;;;;;;;2.85;1.48;;;;;;;;;;4994321;28;20050;-61
2021/03/27 07:30:25;;;;;;;2.67;1.60;;;;;;;;;;4991830;28;20592;-62
2021/03/27 07:32:56;;;;;;;2.45;1.23;;;;;;;;;;5062055;28;20076;-61
2021/03/27 07:35:41;;;;;;;2.17;0.85;;;;;;;;;;5066295;28;20041;-63
2021/03/27 07:38:32;;;;;;;2.53;0.93;;;;;;;;;;5065975;28;20037;-62
2021/03/27 07:41:01;;;;;;;1.27;0.30;;;;;;;;;;5051045;28;20025;-61
2021/03/27 07:44:18;;;;;;;0.60;0.30;;;;;;;;;;5067017;28;20381;-61
2021/03/27 07:47:17;;;;;;;0.70;0.43;;;;;;;;;;5019885;28;20060;-62
2021/03/27 07:49:58;;;;;;;1.25;0.50;;;;;;;;;;5066387;28;20036;-61
2021/03/27 07:52:28;;;;;;;0.73;0.40;;;;;;;;;;5067658;28;20037;-62
2021/03/27 07:55:26;;;;;;;0.45;0.40;;;;;;;;;;5049525;28;20029;-62
2021/03/27 07:57:58;;;;;;;0.52;0.40;;;;;;;;;;5067141;28;20043;-61
2021/03/27 08:01:04;;;;;;;2.03;0.50;;;;;;;;;;5068134;28;20059;-62
2021/03/27 08:03:48;;;;;;;1.55;0.50;;;;;;;;;;5054973;28;20029;-62
2021/03/27 08:06:17;;;;;;;1.23;0.70;;;;;;;;;;5066433;28;20045;-61
2021/03/27 08:08:53;;;;;;;1.83;0.82;;;;;;;;;;5064575;28;20040;-62
2021/03/27 08:11:28;;;;;;;2.70;1.00;;;;;;;;;;5066691;28;20155;-62
2021/03/27 08:14:11;;;;;;;1.13;0.77;;;;;;;;;;5068616;28;20033;-62
2021/03/27 08:16:56;;;;;;;3.30;1.00;;;;;;;;;;5054123;28;20059;-62
2021/03/27 08:19:36;;;;;;;2.30;1.30;;;;;;;;;;5054643;28;20929;-61
2021/03/27 08:22:22;;;;;;;2.90;1.08;;;;;;;;;;5071103;28;20068;-61
2021/03/27 08:24:59;;;;;;;2.63;1.20;;;;;;;;;;5070482;28;20115;-62
2021/03/27 08:27:44;;;;;;;2.80;1.20;;;;;;;;;;5073105;28;20164;-62
2021/03/27 08:30:24;;;;;;;3.17;1.20;;;;;;;;;;5071978;28;20035;-62
2021/03/27 08:33:34;;;;;;;2.50;1.00;;;;;;;;;;5055191;28;20033;-59
2021/03/27 08:36:08;;;;;;;1.48;0.70;;;;;;;;;;5071519;28;20048;-62
2021/03/27 08:39:02;;;;;;;0.70;0.40;;;;;;;;;;5073888;28;20041;-60
2021/03/27 08:41:31;;;;;;;0.63;0.30;;;;;;;;;;5058859;28;20033;-61
2021/03/27 08:44:35;;;;;;;0.20;0.20;;;;;;;;;;5069702;28;20040;-61
2021/03/27 08:47:13;;;;;;;0.20;0.20;;;;;;;;;;5043136;28;20114;-62
2021/03/27 08:49:56;;;;;;;0.20;0.20;;;;;;;;;;5069847;28;20107;-62
2021/03/27 08:52:59;;;;;;;0.43;0.30;;;;;;;;;;5050943;28;20036;-62
2021/03/27 08:55:46;;;;;;;0.20;0.20;;;;;;;;;;5070843;28;20079;-64
2021/03/27 08:58:29;;;;;;;0.30;0.30;;;;;;;;;;5068292;28;20587;-61
2021/03/27 09:01:28;;;;;;;0.40;0.22;;;;;;;;;;5069086;28;20025;-62
2021/03/27 09:04:29;;;;;;;0.73;0.25;;;;;;;;;;5027610;28;20115;-59
2021/03/27 09:07:20;;;;;;;0.40;0.35;;;;;;;;;;5044393;28;20081;-60
2021/03/27 09:10:16;;;;;;;0.28;0.28;;;;;;;;;;5070920;28;20498;-60
2021/03/27 09:12:45;;;;;;;0.25;0.20;;;;;;;;;;5072157;28;20166;-59
2021/03/27 09:15:33;;;;;;;0.50;0.30;;;;;;;;;;5070576;28;20063;-59
2021/03/27 09:18:36;;;;;;;0.20;0.20;;;;;;;;;;5068464;28;20043;-58
2021/03/27 09:21:20;;;;;;;0.57;0.35;;;;;;;;;;5067660;28;20817;-60
2021/03/27 09:24:10;;;;;;;0.55;0.40;;;;;;;;;;5069061;28;20778;-58
2021/03/27 09:27:07;;;;;;;2.05;1.40;;;;;;;;;;5070689;28;20120;-60
2021/03/27 09:29:52;;;;;;;4.18;2.47;;;;;;;;;;5068767;28;20033;-59
2021/03/27 09:32:42;;;;;;;1.33;0.82;;;;;;;;;;5067826;28;20702;-59
2021/03/27 09:35:20;;;;;;;1.48;0.52;;;;;;;;;;5041814;28;20043;-59
2021/03/27 09:38:07;;;;;;;1.63;0.50;;;;;;;;;;5050015;28;20207;-59
2021/03/27 09:40:53;;;;;;;0.55;0.30;;;;;;;;;;5067483;28;20036;-61
2021/03/27 09:43:58;;;;;;;1.00;0.90;;;;;;;;;;5043773;28;20148;-60
2021/03/27 09:46:37;;;;;;;0.50;0.50;;;;;;;;;;5053344;28;20045;-60
2021/03/27 09:49:20;;;;;;;0.52;0.45;;;;;;;;;;5069855;28;20770;-61
2021/03/27 09:52:13;;;;;;;0.75;0.57;;;;;;;;;;5068409;28;20500;-61
2021/03/27 09:54:52;;;;;;;0.50;0.30;;;;;;;;;;5055916;28;20514;-61
2021/03/27 09:57:26;;;;;;;0.60;0.47;;;;;;;;;;5069052;28;20040;-61
2021/03/27 10:00:15;;;;;;;0.75;0.40;;;;;;;;;;5069330;28;20104;-61
2021/03/27 10:03:04;;;;;;;0.75;0.50;;;;;;;;;;5032629;28;20037;-61
2021/03/27 10:05:50;;;;;;;1.98;0.60;;;;;;;;;;5066800;28;20064;-61
2021/03/27 10:08:33;;;;;;;1.00;0.65;;;;;;;;;;5067604;28;20051;-61
2021/03/27 10:11:14;;;;;;;0.88;0.50;;;;;;;;;;5069115;28;20128;-61
2021/03/27 10:13:55;;;;;;;1.67;0.63;;;;;;;;;;5067855;28;21166;-61
2021/03/27 10:16:26;;;;;;;1.83;0.88;;;;;;;;;;5070710;28;20032;-61
2021/03/27 10:18:55;;;;;;;1.90;0.90;;;;;;;;;;5072049;28;20055;-61
2021/03/27 10:21:25;;;;;;;1.85;0.93;;;;;;;;;;5069533;28;20033;-61
2021/03/27 10:24:09;;;;;;;2.95;1.48;;;;;;;;;;5068920;28;20040;-61
2021/03/27 10:26:43;;;;;;;2.10;1.20;;;;;;;;;;5065211;28;20576;-61
2021/03/27 10:29:39;;;;;;;2.65;1.38;;;;;;;;;;5065263;28;20036;-61
2021/03/27 10:32:29;;;;;;;3.17;1.13;;;;;;;;;;5069838;28;20041;-62
2021/03/27 10:35:34;;;;;;;0.93;0.70;;;;;;;;;;5066008;28;20048;-61
2021/03/27 10:38:43;;;;;;;2.78;1.00;;;;;;;;;;5063103;28;20049;-61
2021/03/27 10:41:20;;;;;;;4.40;2.00;;;;;;;;;;5066896;28;20045;-61
2021/03/27 10:43:50;;;;;;;2.75;1.23;;;;;;;;;;5069623;28;20549;-61
2021/03/27 10:46:37;;;;;;;2.92;1.25;;;;;;;;;;5069203;28;20045;-61
2021/03/27 10:49:20;;;;;;;2.05;1.15;;;;;;;;;;5068916;28;20123;-61
2021/03/27 10:52:04;;;;;;;3.03;1.00;;;;;;;;;;5070222;28;20047;-62
2021/03/27 10:55:00;;;;;;;2.47;1.10;;;;;;;;;;5069553;28;20956;-62
2021/03/27 10:57:38;;;;;;;2.17;1.20;;;;;;;;;;5067483;28;20037;-62
2021/03/27 11:00:41;;;;;;;0.65;0.22;;;;;;;;;;5051123;28;20025;-62
2021/03/27 11:03:44;;;;;;;1.17;0.50;;;;;;;;;;5067668;28;20065;-62
2021/03/27 11:06:46;;;;;;;0.20;0.20;;;;;;;;;;5041277;28;20124;-61
2021/03/27 11:09:24;;;;;;;0.75;0.50;;;;;;;;;;5067658;28;20048;-61
2021/03/27 11:11:55;;;;;;;1.10;0.60;;;;;;;;;;5066325;28;20112;-61
2021/03/27 11:14:46;;;;;;;0.93;0.40;;;;;;;;;;5065881;28;20033;-61
2021/03/27 11:17:20;;;;;;;0.40;0.20;;;;;;;;;;5066349;28;20083;-62
2021/03/27 11:20:01;;;;;;;0.32;0.20;;;;;;;;;;5068472;28;20906;-61
2021/03/27 11:22:51;;;;;;;0.95;0.30;;;;;;;;;;5066226;28;20029;-62
2021/03/27 11:25:20;;;;;;;0.68;0.30;;;;;;;;;;5053109;28;20431;-62
2021/03/27 11:28:00;;;;;;;0.50;0.30;;;;;;;;;;5064682;28;20025;-61
2021/03/27 11:31:00;;;;;;;0.70;0.40;;;;;;;;;;5067191;28;20910;-62
2021/03/27 11:33:36;;;;;;;0.70;0.50;;;;;;;;;;5066409;28;20080;-62
2021/03/27 11:36:09;;;;;;;0.75;0.60;;;;;;;;;;5050535;28;20056;-66
2021/03/27 11:38:45;;;;;;;0.85;0.70;;;;;;;;;;5067288;28;20033;-61
2021/03/27 11:41:22;;;;;;;0.98;0.65;;;;;;;;;;5052065;28;20032;-62
2021/03/27 11:44:32;;;;;;;0.63;0.47;;;;;;;;;;5068566;28;20041;-64
2021/03/27 11:47:20;;;;;;;0.82;0.73;;;;;;;;;;5056783;28;20075;-62
2021/03/27 11:49:48;;;;;;;1.15;0.70;;;;;;;;;;5035559;28;20041;-62
2021/03/27 11:52:19;;;;;;;0.60;0.50;;;;;;;;;;5054598;28;20041;-63
2021/03/27 11:55:14;;;;;;;1.20;0.60;;;;;;;;;;5066821;28;20063;-63
2021/03/27 11:57:50;;;;;;;1.33;0.70;;;;;;;;;;5069544;28;20033;-61
2021/03/27 12:00:47;;;;;;;1.33;0.85;;;;;;;;;;5036958;28;20087;-62
2021/03/27 12:03:28;;;;;;;0.95;0.60;;;;;;;;;;5068066;28;20781;-60
2021/03/27 12:06:15;;;;;;;0.90;0.52;;;;;;;;;;5068315;28;20041;-61
2021/03/27 12:09:02;;;;;;;1.58;1.05;;;;;;;;;;5066318;28;20040;-61
2021/03/27 12:11:47;;;;;;;1.52;0.82;;;;;;;;;;5065034;28;20578;-61
2021/03/27 12:14:16;;;;;;;0.88;0.57;;;;;;;;;;5068016;28;20033;-61
2021/03/27 12:16:58;;;;;;;1.27;0.60;;;;;;;;;;5067038;28;20506;-62
2021/03/27 12:19:57;;;;;;;2.83;1.10;;;;;;;;;;5046705;28;20108;-62
2021/03/27 12:22:36;;;;;;;1.67;0.70;;;;;;;;;;5049109;28;20565;-62
2021/03/27 12:25:27;;;;;;;0.90;0.65;;;;;;;;;;5051026;28;20075;-61
2021/03/27 12:27:59;;;;;;;1.88;0.82;;;;;;;;;;5029089;28;20044;-66
2021/03/27 12:30:48;;;;;;;1.52;0.70;;;;;;;;;;5067566;28;20029;-60
2021/03/27 12:33:31;;;;;;;1.23;0.60;;;;;;;;;;5067285;28;20909;-60
2021/03/27 12:36:10;;;;;;;1.40;0.60;;;;;;;;;;5068252;28;20522;-60
2021/03/27 12:38:38;;;;;;;1.45;0.70;;;;;;;;;;5065082;28;20036;-59
2021/03/27 12:41:10;;;;;;;0.70;0.60;;;;;;;;;;5068599;28;20036;-60
2021/03/27 12:43:44;;;;;;;1.92;0.82;;;;;;;;;;5050691;28;20602;-62
2021/03/27 12:46:31;;;;;;;1.67;0.80;;;;;;;;;;5049622;28;20056;-60
2021/03/27 12:49:06;;;;;;;1.33;0.75;;;;;;;;;;5069915;28;20049;-60
2021/03/27 12:51:42;;;;;;;1.33;0.70;;;;;;;;;;5065937;28;20044;-61
2021/03/27 12:54:30;;;;;;;2.85;0.98;;;;;;;;;;5069069;28;20108;-60
2021/03/27 12:57:14;;;;;;;1.30;0.60;;;;;;;;;;5068040;28;20033;-61
2021/03/27 13:00:00;;;;;;;1.00;0.70;;;;;;;;;;5067784;28;20106;-61
2021/03/27 13:02:34;;;;;;;2.72;0.90;;;;;;;;;;5070449;28;20032;-66
2021/03/27 13:05:11;;;;;;;1.58;0.68;;;;;;;;;;5068720;28;20095;-65
2021/03/27 13:07:59;;;;;;;0.80;0.52;;;;;;;;;;5066464;28;20036;-66
2021/03/27 13:10:54;;;;;;;2.17;0.80;;;;;;;;;;5054673;28;20044;-67
2021/03/27 13:14:01;;;;;;;3.13;1.17;;;;;;;;;;5055647;28;20072;-66
2021/03/27 13:16:48;;;;;;;1.55;0.98;;;;;;;;;;5070415;28;20040;-67
2021/03/27 13:19:16;;;;;;;1.00;0.77;;;;;;;;;;5071349;28;20075;-67
2021/03/27 13:22:01;;;;;;;1.13;0.80;;;;;;;;;;5067929;28;20033;-66
2021/03/27 13:24:32;;;;;;;1.60;0.70;;;;;;;;;;5048339;28;20037;-67
2021/03/27 13:27:15;;;;;;;1.40;0.70;;;;;;;;;;5072022;28;20510;-67
2021/03/27 13:29:42;;;;;;;1.13;0.70;;;;;;;;;;5068063;28;20033;-67
2021/03/27 13:32:28;;;;;;;1.60;0.80;;;;;;;;;;5065977;28;20033;-66
2021/03/27 13:34:55;;;;;;;2.33;0.93;;;;;;;;;;5054287;28;20812;-67
2021/03/27 13:37:43;;;;;;;2.13;0.88;;;;;;;;;;5069203;28;20060;-66
2021/03/27 13:40:24;;;;;;;2.00;0.80;;;;;;;;;;5051754;28;20041;-67
2021/03/27 13:43:16;;;;;;;3.28;1.00;;;;;;;;;;5069033;28;20033;-67
2021/03/27 13:45:59;;;;;;;1.13;0.80;;;;;;;;;;5069250;28;20461;-67
2021/03/27 13:48:27;;;;;;;2.30;0.95;;;;;;;;;;5068543;28;20029;-67
2021/03/27 13:51:11;;;;;;;1.92;0.90;;;;;;;;;;5073418;28;20033;-67
2021/03/27 13:53:41;;;;;;;1.90;0.90;;;;;;;;;;5066784;28;20040;-66
2021/03/27 13:56:38;;;;;;;3.15;0.82;;;;;;;;;;5052700;28;20080;-68
2021/03/27 13:59:18;;;;;;;2.30;0.93;;;;;;;;;;5045616;28;20051;-67
2021/03/27 14:02:02;;;;;;;2.35;0.93;;;;;;;;;;5072912;28;20040;-68
2021/03/27 14:04:30;;;;;;;3.25;0.90;;;;;;;;;;5071273;28;20053;-67
2021/03/27 14:07:01;;;;;;;1.90;0.82;;;;;;;;;;5067294;28;20053;-67
2021/03/27 14:09:34;;;;;;;2.53;0.90;;;;;;;;;;5065654;28;20033;-68
2021/03/27 14:12:03;;;;;;;0.77;0.60;;;;;;;;;;5052547;28;20973;-68
2021/03/27 14:14:34;;;;;;;3.95;1.00;;;;;;;;;;5051497;28;20060;-68
2021/03/27 14:17:04;;;;;;;2.08;0.90;;;;;;;;;;5052435;28;20092;-68
2021/03/27 14:19:57;;;;;;;2.00;0.65;;;;;;;;;;5071036;28;20045;-68
2021/03/27 14:22:32;;;;;;;1.98;0.70;;;;;;;;;;5067919;28;20032;-65
2021/03/27 14:25:19;;;;;;;1.17;0.50;;;;;;;;;;5068510;28;20032;-65
2021/03/27 14:27:53;;;;;;;1.00;0.57;;;;;;;;;;5068518;28;20044;-66
2021/03/27 14:30:51;;;;;;;1.73;0.57;;;;;;;;;;5068148;28;20029;-66
2021/03/27 14:33:56;;;;;;;1.08;0.50;;;;;;;;;;5054561;28;20052;-66
2021/03/27 14:36:57;;;;;;;1.05;0.60;;;;;;;;;;5029644;28;20112;-66
2021/03/27 14:39:44;;;;;;;1.88;0.63;;;;;;;;;;5070813;28;20033;-66
2021/03/27 14:42:15;;;;;;;1.58;0.70;;;;;;;;;;5062996;28;20400;-67
2021/03/27 14:44:47;;;;;;;1.80;0.77;;;;;;;;;;5068190;28;20064;-66
2021/03/27 14:47:50;;;;;;;1.02;0.47;;;;;;;;;;5067373;28;20033;-67
2021/03/27 14:50:20;;;;;;;2.38;0.60;;;;;;;;;;5065791;28;20502;-65
2021/03/27 14:52:52;;;;;;;1.20;0.55;;;;;;;;;;5066397;28;20849;-66
2021/03/27 14:55:23;;;;;;;1.63;0.57;;;;;;;;;;5037030;28;20079;-69
2021/03/27 14:57:57;;;;;;;0.93;0.40;;;;;;;;;;5068802;28;20041;-65
2021/03/27 15:00:44;;;;;;;1.02;0.50;;;;;;;;;;5067924;28;20870;-67
2021/03/27 15:03:15;;;;;;;1.67;0.70;;;;;;;;;;5069583;28;20040;-69
2021/03/27 15:05:43;;;;;;;1.30;0.68;;;;;;;;;;5050675;28;20037;-68
2021/03/27 15:08:27;;;;;;;1.25;0.60;;;;;;;;;;5051337;28;20029;-68
2021/03/27 15:10:55;;;;;;;2.22;0.73;;;;;;;;;;5068287;28;20044;-70
2021/03/27 15:13:33;;;;;;;2.90;0.70;;;;;;;;;;5068913;28;20071;-71
2021/03/27 15:16:17;;;;;;;2.50;0.80;;;;;;;;;;5069252;28;20523;-71
2021/03/27 15:18:50;;;;;;;1.38;0.55;;;;;;;;;;5066137;28;20157;-70
2021/03/27 15:21:18;;;;;;;1.25;0.50;;;;;;;;;;5065565;28;20033;-70
2021/03/27 15:24:06;;;;;;;1.15;0.50;;;;;;;;;;5034408;28;20032;-70
2021/03/27 15:29:33;;;;;;;1.20;0.40;;;;;;;;;;5045761;28;20051;-70
2021/03/27 15:32:08;;;;;;;1.20;0.40;;;;;;;;;;5066226;28;20037;-70
2021/03/27 15:34:58;;;;;;;0.90;0.50;;;;;;;;;;5066132;28;20032;-70
2021/03/27 15:37:32;;;;;;;1.13;0.43;;;;;;;;;;5066399;28;20144;-69
2021/03/27 15:40:01;;;;;;;1.15;0.52;;;;;;;;;;5069468;28;20106;-70
2021/03/27 15:42:42;;;;;;;1.25;0.60;;;;;;;;;;5066890;28;20179;-69
2021/03/27 15:45:33;;;;;;;1.15;0.40;;;;;;;;;;5049705;28;20044;-68
2021/03/27 15:48:31;;;;;;;0.65;0.38;;;;;;;;;;5055023;28;20053;-70
2021/03/27 15:51:18;;;;;;;1.42;0.50;;;;;;;;;;5066582;28;21271;-69
2021/03/27 15:53:50;;;;;;;1.92;0.73;;;;;;;;;;5068236;28;20579;-69
2021/03/27 15:56:55;;;;;;;1.42;0.60;;;;;;;;;;5066747;28;20029;-70
2021/03/27 15:59:26;;;;;;;1.85;0.70;;;;;;;;;;5054638;28;20799;-70
2021/03/27 16:01:57;;;;;;;1.25;0.70;;;;;;;;;;5067549;28;20033;-71
2021/03/27 16:04:37;;;;;;;1.17;0.50;;;;;;;;;;5053708;28;20035;-71
2021/03/27 16:07:17;;;;;;;1.52;0.65;;;;;;;;;;5057999;28;20507;-71
2021/03/27 16:09:56;;;;;;;1.45;0.70;;;;;;;;;;5050629;28;20512;-71
2021/03/27 16:12:38;;;;;;;1.55;0.70;;;;;;;;;;5067908;28;20033;-71
2021/03/27 16:15:10;;;;;;;2.53;0.80;;;;;;;;;;5069667;28;21211;-71